CheckWX is a tool to help pilots better visualize weather data.  It is not intended as a substitute for an official pre-flight weather briefing.

05:14:39 UTC

KMCO TAF
Orlando International Airport
Orlando, Florida, USA
KMCO 280304Z 2803/2906 30006KT P6SM SKC FM281700 29010KT P6SM SKC FM290000 26006KT P6SM SKC

Feb-28@
03:00 UTC

Feb-28 @ 03:00 UTC

Feb-28@
17:00 UTC

Feb-28 @ 17:00 UTC

KMCO 280304Z 2803/2906 30006KT P6SM SKC
Wind
  • 300° at 6 KTS
Cloud Levels
  • Clear skies

Feb-28@
17:00 UTC

Feb-28 @ 17:00 UTC

Feb-29@
00:00 UTC

Feb-29 @ 00:00 UTC

FM281700 29010KT P6SM SKC

From

From Standard forecast or significant change

Wind
  • 290° at 10 KTS
Cloud Levels
  • Clear skies

Feb-29@
00:00 UTC

Feb-29 @ 00:00 UTC

Feb-29@
06:00 UTC

Feb-29 @ 06:00 UTC

FM290000 26006KT P6SM SKC

From

From Standard forecast or significant change

Wind
  • 260° at 6 KTS
Cloud Levels
  • Clear skies